Time;durP1;ratioP1;P1;durP2;ratioP2;P2;SDS_P1;SDS_P2;PMS_P1;PMS_P2;Temp;Humidity;BMP_temperature;BMP_pressure;BME280_temperature;BME280_humidity;BME280_pressure;Samples;Min_cycle;Max_cycle;Signal;HPM_P1;HPM_P2
2020/12/19 00:03:29;;;;;;;16.90;8.45;;;6.70;90.90;;;;;;10035666;28;20037;-65
2020/12/19 00:08:19;;;;;;;15.63;8.02;;;6.80;91.00;;;;;;10036711;28;20076;-63
2020/12/19 00:13:10;;;;;;;12.68;7.10;;;6.70;91.00;;;;;;10038798;28;20041;-63
2020/12/19 00:18:01;;;;;;;11.90;6.80;;;6.70;91.00;;;;;;10032212;28;20037;-64
2020/12/19 00:22:52;;;;;;;9.95;6.18;;;6.80;91.00;;;;;;10032495;28;20488;-62
2020/12/19 00:27:44;;;;;;;10.82;6.13;;;6.90;90.90;;;;;;10037078;28;20461;-65
2020/12/19 00:32:39;;;;;;;11.85;6.70;;;6.80;90.80;;;;;;10041708;28;20360;-63
2020/12/19 00:37:29;;;;;;;12.25;6.72;;;6.70;90.80;;;;;;10036456;28;20029;-63
2020/12/19 00:42:20;;;;;;;12.88;7.32;;;6.90;90.80;;;;;;10044996;28;20041;-63
2020/12/19 00:47:10;;;;;;;11.85;6.95;;;6.90;90.70;;;;;;10043243;28;20053;-64
2020/12/19 00:52:01;;;;;;;12.00;5.75;;;7.00;90.60;;;;;;10043090;28;20438;-61
2020/12/19 00:56:52;;;;;;;13.05;7.10;;;7.00;90.60;;;;;;10038268;28;20029;-63
2020/12/19 01:01:43;;;;;;;13.75;7.15;;;6.90;90.70;;;;;;10044272;28;20056;-63
2020/12/19 01:06:33;;;;;;;12.65;6.35;;;6.90;90.50;;;;;;10045295;28;20040;-62
2020/12/19 01:11:26;;;;;;;15.50;7.10;;;6.80;90.50;;;;;;10039130;28;20038;-62
2020/12/19 01:16:22;;;;;;;11.93;6.85;;;6.80;90.70;;;;;;10040546;28;20400;-62
2020/12/19 01:21:14;;;;;;;12.45;7.40;;;7.00;90.50;;;;;;10040672;28;20130;-63
2020/12/19 01:26:05;;;;;;;13.77;6.75;;;6.90;90.60;;;;;;10038907;28;20035;-63
2020/12/19 01:30:56;;;;;;;12.75;6.13;;;6.90;90.60;;;;;;10042259;28;20137;-64
2020/12/19 01:35:46;;;;;;;11.40;6.40;;;6.90;90.60;;;;;;10038830;28;20047;-64
2020/12/19 01:40:37;;;;;;;9.38;6.03;;;6.90;90.60;;;;;;10039824;28;20040;-64
2020/12/19 01:45:27;;;;;;;15.02;7.57;;;6.90;90.60;;;;;;10039564;28;20038;-63
2020/12/19 01:50:18;;;;;;;18.83;9.45;;;6.80;90.70;;;;;;10041251;28;20065;-63
2020/12/19 01:55:08;;;;;;;13.27;8.07;;;6.70;90.70;;;;;;10039711;28;20033;-62
2020/12/19 02:00:00;;;;;;;11.50;7.90;;;6.70;90.60;;;;;;10040189;28;20514;-62
2020/12/19 02:04:52;;;;;;;14.02;7.25;;;6.70;90.50;;;;;;10036939;28;20133;-62
2020/12/19 02:09:43;;;;;;;10.05;6.30;;;6.50;90.30;;;;;;10040833;28;20112;-65
2020/12/19 02:14:33;;;;;;;11.13;6.43;;;6.30;90.30;;;;;;10036360;28;20748;-63
2020/12/19 02:19:28;;;;;;;9.55;6.53;;;6.30;90.30;;;;;;10039168;28;20042;-63
2020/12/19 02:24:19;;;;;;;10.23;5.75;;;6.30;90.20;;;;;;10036790;28;20033;-64
2020/12/19 02:29:09;;;;;;;10.25;6.30;;;6.30;90.20;;;;;;10035562;28;20035;-63
2020/12/19 02:34:00;;;;;;;12.85;6.53;;;6.20;90.10;;;;;;10042086;28;20037;-64
2020/12/19 02:38:50;;;;;;;9.40;5.50;;;6.20;90.10;;;;;;10032577;28;20029;-63
2020/12/19 02:43:41;;;;;;;8.02;5.63;;;6.20;90.10;;;;;;10039623;28;20037;-64
2020/12/19 02:48:31;;;;;;;10.55;6.80;;;6.20;90.10;;;;;;10040204;28;20421;-64
2020/12/19 02:53:22;;;;;;;18.75;8.13;;;6.20;90.20;;;;;;10028207;28;20021;-64
2020/12/19 02:58:12;;;;;;;11.70;6.30;;;6.20;90.20;;;;;;10034248;28;20037;-64
2020/12/19 03:03:03;;;;;;;14.88;6.95;;;6.30;90.30;;;;;;10034320;28;20416;-64
2020/12/19 03:07:53;;;;;;;13.32;6.50;;;6.30;90.30;;;;;;10033788;28;20045;-63
2020/12/19 03:12:44;;;;;;;12.95;5.70;;;6.30;90.40;;;;;;10037603;28;20025;-62
2020/12/19 03:17:35;;;;;;;9.90;6.35;;;6.40;90.40;;;;;;10040919;28;20091;-63
2020/12/19 03:22:25;;;;;;;12.98;5.50;;;6.30;90.70;;;;;;10038099;28;20025;-64
2020/12/19 03:27:16;;;;;;;12.75;6.22;;;6.40;90.60;;;;;;10035891;28;20037;-64
2020/12/19 03:32:06;;;;;;;10.70;5.00;;;6.40;90.60;;;;;;10032446;28;20125;-63
2020/12/19 03:36:57;;;;;;;9.63;5.47;;;6.40;90.60;;;;;;10037024;28;20076;-63
2020/12/19 03:41:47;;;;;;;7.30;4.95;;;6.40;90.60;;;;;;10036768;28;20033;-63
2020/12/19 03:46:38;;;;;;;12.23;5.97;;;6.40;90.70;;;;;;10035387;28;20091;-64
2020/12/19 03:51:28;;;;;;;11.55;6.28;;;6.40;90.60;;;;;;10030886;28;20072;-63
2020/12/19 03:56:19;;;;;;;10.68;5.07;;;6.30;90.60;;;;;;10039117;28;20029;-63
2020/12/19 04:01:10;;;;;;;10.73;5.60;;;6.30;90.70;;;;;;10034530;28;20063;-64
2020/12/19 04:06:00;;;;;;;9.85;5.78;;;6.30;90.70;;;;;;10040022;28;20476;-63
2020/12/19 04:10:51;;;;;;;9.10;5.57;;;6.30;90.70;;;;;;10042420;28;20083;-63
2020/12/19 04:15:41;;;;;;;13.95;5.40;;;6.40;90.70;;;;;;10044913;28;20507;-63
2020/12/19 04:20:32;;;;;;;8.30;5.55;;;6.30;90.60;;;;;;10044462;28;20029;-63
2020/12/19 04:25:22;;;;;;;8.50;5.05;;;6.40;90.70;;;;;;10038546;28;20040;-63
2020/12/19 04:30:13;;;;;;;8.77;4.72;;;6.40;90.50;;;;;;10045169;28;20514;-63
2020/12/19 04:35:05;;;;;;;11.10;5.75;;;6.40;90.50;;;;;;10046089;28;20040;-63
2020/12/19 04:39:56;;;;;;;9.88;5.18;;;6.30;90.50;;;;;;10046399;28;20052;-63
2020/12/19 04:44:47;;;;;;;9.82;4.85;;;6.20;90.50;;;;;;10043547;28;20025;-63
2020/12/19 04:49:41;;;;;;;11.73;5.57;;;6.20;90.40;;;;;;10043459;28;20157;-64
2020/12/19 04:54:32;;;;;;;11.13;6.25;;;6.20;90.40;;;;;;10046096;28;20376;-63
2020/12/19 04:59:23;;;;;;;9.52;5.50;;;6.10;90.30;;;;;;10043627;28;20044;-63
2020/12/19 05:04:14;;;;;;;10.00;6.13;;;6.10;90.30;;;;;;10068068;28;20072;-63
2020/12/19 05:09:05;;;;;;;16.13;6.55;;;6.00;90.20;;;;;;10043430;28;20399;-64
2020/12/19 05:13:55;;;;;;;16.67;7.35;;;6.10;90.20;;;;;;10039671;28;20056;-63
2020/12/19 05:18:46;;;;;;;11.63;7.03;;;6.00;90.30;;;;;;10039091;28;20054;-63
2020/12/19 05:23:39;;;;;;;12.90;6.72;;;5.90;90.40;;;;;;10041617;28;20030;-64
2020/12/19 05:28:29;;;;;;;10.68;6.50;;;5.80;90.30;;;;;;10034853;28;20028;-63
2020/12/19 05:33:20;;;;;;;15.50;7.30;;;5.80;90.30;;;;;;10042898;28;21103;-63
2020/12/19 05:38:11;;;;;;;15.88;6.95;;;5.70;90.50;;;;;;10042421;28;20033;-62
2020/12/19 05:43:02;;;;;;;14.77;6.38;;;5.60;90.50;;;;;;10042751;28;20029;-63
2020/12/19 05:47:52;;;;;;;18.58;7.68;;;5.50;90.70;;;;;;10040734;28;20072;-64
2020/12/19 05:52:43;;;;;;;15.80;6.53;;;5.40;90.90;;;;;;10040889;28;20044;-64
2020/12/19 05:57:35;;;;;;;15.65;7.40;;;5.50;90.90;;;;;;10040909;28;20081;-63
2020/12/19 06:02:31;;;;;;;16.48;8.60;;;5.50;91.00;;;;;;10036828;28;20113;-64
2020/12/19 06:07:22;;;;;;;16.23;6.65;;;5.60;90.80;;;;;;10039427;28;20057;-64
2020/12/19 06:12:29;;;;;;;15.10;7.18;;;5.50;91.30;;;;;;10042473;28;20080;-64
2020/12/19 06:17:46;;;;;;;13.00;7.10;;;5.60;91.50;;;;;;10040686;28;20531;-67
2020/12/19 06:22:36;;;;;;;;;;;5.60;91.10;;;;;;10037244;28;20731;-64
2020/12/19 06:27:27;;;;;;;15.63;6.78;;;5.60;91.20;;;;;;10037847;28;19913;-63
2020/12/19 06:32:29;;;;;;;13.98;7.07;;;5.60;91.10;;;;;;10039821;28;20064;-64
2020/12/19 06:37:24;;;;;;;13.95;6.57;;;5.50;91.00;;;;;;10038307;28;20026;-64
2020/12/19 06:42:27;;;;;;;13.30;6.67;;;5.50;91.10;;;;;;10034567;28;20131;-63
2020/12/19 06:47:19;;;;;;;15.10;7.53;;;5.40;91.30;;;;;;10040641;28;20049;-64
2020/12/19 06:52:11;;;;;;;13.13;5.75;;;5.50;91.30;;;;;;10040450;28;20076;-64
2020/12/19 06:57:03;;;;;;;15.63;7.07;;;5.60;91.10;;;;;;10034798;28;20786;-64
2020/12/19 07:02:14;;;;;;;11.25;6.35;;;5.70;91.10;;;;;;10039904;28;20034;-64
2020/12/19 07:07:14;;;;;;;12.18;6.32;;;5.70;91.00;;;;;;10040071;28;20052;-64
2020/12/19 07:12:05;;;;;;;17.02;7.38;;;5.70;91.10;;;;;;10037496;28;20497;-64
2020/12/19 07:16:55;;;;;;;12.05;7.45;;;5.80;91.10;;;;;;10034249;28;20056;-63
2020/12/19 07:21:47;;;;;;;12.23;6.25;;;5.80;91.10;;;;;;10032957;28;20059;-63
2020/12/19 07:26:38;;;;;;;11.85;6.18;;;5.80;91.10;;;;;;10033491;28;20574;-62
2020/12/19 07:31:30;;;;;;;13.65;6.18;;;5.90;91.00;;;;;;10038371;28;20025;-64
2020/12/19 07:36:21;;;;;;;15.40;8.85;;;5.80;91.10;;;;;;10030529;28;20484;-63
2020/12/19 07:41:11;;;;;;;12.98;7.28;;;5.90;91.10;;;;;;10038483;28;20036;-63
2020/12/19 07:46:02;;;;;;;12.85;7.32;;;6.00;91.20;;;;;;10035872;28;20025;-64
2020/12/19 07:50:53;;;;;;;17.55;7.15;;;6.10;91.00;;;;;;10038823;28;20144;-64
2020/12/19 07:55:51;;;;;;;21.63;8.65;;;6.10;91.10;;;;;;10032167;28;20091;-63
2020/12/19 08:00:42;;;;;;;17.35;8.30;;;6.20;91.00;;;;;;10033600;28;20049;-63
2020/12/19 08:05:33;;;;;;;13.10;7.10;;;6.30;91.00;;;;;;10037927;28;20034;-64
2020/12/19 08:10:23;;;;;;;14.30;7.75;;;6.30;90.80;;;;;;10030936;28;20034;-64
2020/12/19 08:15:20;;;;;;;13.32;6.78;;;6.30;91.00;;;;;;10033738;28;20037;-64
2020/12/19 08:20:11;;;;;;;14.82;7.22;;;6.30;90.90;;;;;;10036538;28;20567;-64
2020/12/19 08:25:02;;;;;;;12.02;7.35;;;6.50;90.80;;;;;;10037455;28;20028;-63
2020/12/19 08:30:27;;;;;;;10.93;6.72;;;6.60;90.60;;;;;;10038550;28;20041;-64
2020/12/19 08:35:20;;;;;;;11.25;6.28;;;6.70;90.60;;;;;;10023862;28;20176;-63
2020/12/19 08:40:16;;;;;;;9.40;6.40;;;6.60;90.50;;;;;;10039256;28;20052;-63
2020/12/19 08:45:26;;;;;;;;;;;6.60;90.60;;;;;;10036870;28;20033;-64
2020/12/19 08:50:21;;;;;;;10.85;5.72;;;6.50;90.60;;;;;;10034399;28;20386;-65
2020/12/19 08:55:12;;;;;;;8.93;5.03;;;6.60;90.40;;;;;;10043932;28;20478;-63
2020/12/19 09:00:14;;;;;;;12.02;5.97;;;6.70;90.50;;;;;;10038556;28;20033;-64
2020/12/19 09:05:05;;;;;;;10.35;6.00;;;6.80;90.40;;;;;;10044002;28;20038;-64
2020/12/19 09:09:56;;;;;;;12.02;6.80;;;6.80;90.30;;;;;;10038855;28;20030;-64
2020/12/19 09:14:48;;;;;;;11.52;6.10;;;6.90;90.30;;;;;;10041389;28;20025;-64
2020/12/19 09:19:38;;;;;;;8.90;6.60;;;7.20;90.10;;;;;;10038616;28;20018;-64
2020/12/19 09:24:29;;;;;;;10.35;6.40;;;7.20;90.00;;;;;;10043353;28;20029;-65
2020/12/19 09:29:20;;;;;;;11.82;6.13;;;7.20;90.00;;;;;;10045136;28;20437;-63
2020/12/19 09:34:11;;;;;;;12.02;6.88;;;7.30;89.80;;;;;;10039664;28;20029;-62
2020/12/19 09:39:03;;;;;;;10.75;6.53;;;7.40;89.90;;;;;;10038517;28;20044;-61
2020/12/19 09:43:53;;;;;;;9.90;6.07;;;7.40;89.70;;;;;;10041978;28;20041;-61
2020/12/19 09:48:44;;;;;;;11.48;6.20;;;7.40;90.00;;;;;;10037297;28;20064;-61
2020/12/19 09:53:35;;;;;;;10.55;6.70;;;7.50;89.80;;;;;;10041485;28;20035;-61
2020/12/19 09:58:26;;;;;;;11.23;6.32;;;7.60;89.70;;;;;;10041038;28;20115;-61
2020/12/19 10:03:16;;;;;;;8.93;5.78;;;7.70;89.40;;;;;;10041768;28;20123;-64
2020/12/19 10:08:07;;;;;;;8.55;5.20;;;7.80;89.10;;;;;;10039139;28;20128;-64
2020/12/19 10:12:57;;;;;;;9.27;5.70;;;8.00;88.90;;;;;;10039481;28;20368;-65
2020/12/19 10:17:48;;;;;;;11.45;6.05;;;8.00;88.70;;;;;;10036076;28;21763;-66
2020/12/19 10:22:38;;;;;;;13.18;6.15;;;8.20;88.60;;;;;;10043468;28;20022;-60
2020/12/19 10:27:29;;;;;;;18.80;8.82;;;8.50;88.10;;;;;;10037814;28;20096;-58
2020/12/19 10:32:20;;;;;;;12.23;6.82;;;8.60;87.60;;;;;;10038018;28;20449;-59
2020/12/19 10:37:11;;;;;;;8.15;5.65;;;8.70;87.30;;;;;;10036829;28;20384;-60
2020/12/19 10:42:02;;;;;;;9.52;5.53;;;8.80;87.00;;;;;;10038649;28;20029;-62
2020/12/19 10:46:52;;;;;;;9.45;5.43;;;8.90;86.90;;;;;;10029700;28;20088;-64
2020/12/19 10:51:43;;;;;;;9.07;5.72;;;8.90;86.80;;;;;;10040443;28;20505;-64
2020/12/19 10:56:33;;;;;;;8.48;5.47;;;8.90;87.00;;;;;;10037053;28;20038;-67
2020/12/19 11:01:24;;;;;;;10.68;4.90;;;8.90;86.50;;;;;;10037837;28;20160;-64
2020/12/19 11:06:19;;;;;;;9.65;5.47;;;8.90;86.60;;;;;;10035420;28;20032;-64
2020/12/19 11:11:10;;;;;;;13.63;8.67;;;8.90;86.30;;;;;;10036244;28;20035;-65
2020/12/19 11:16:00;;;;;;;10.27;4.55;;;8.90;85.70;;;;;;10041602;28;20551;-64
2020/12/19 11:20:51;;;;;;;12.80;7.30;;;8.90;85.70;;;;;;10035661;28;20033;-64
2020/12/19 11:25:42;;;;;;;8.77;5.05;;;9.00;85.70;;;;;;10035819;28;20029;-65
2020/12/19 11:30:32;;;;;;;9.65;5.18;;;9.00;85.50;;;;;;10040549;28;20492;-63
2020/12/19 11:35:23;;;;;;;9.80;5.63;;;9.10;85.20;;;;;;10038378;28;20153;-64
2020/12/19 11:40:14;;;;;;;8.60;5.00;;;9.10;84.80;;;;;;10034213;28;20041;-64
2020/12/19 11:45:04;;;;;;;9.82;5.82;;;9.20;85.50;;;;;;10032193;28;20312;-64
2020/12/19 11:49:55;;;;;;;9.70;5.85;;;9.20;84.80;;;;;;10036841;28;20542;-64
2020/12/19 11:54:46;;;;;;;12.38;6.35;;;9.30;84.40;;;;;;10037587;28;20447;-64
2020/12/19 11:59:36;;;;;;;12.25;6.20;;;9.40;84.30;;;;;;10034628;28;20065;-65
2020/12/19 12:04:28;;;;;;;11.57;6.15;;;9.40;84.40;;;;;;10036739;28;20068;-64
2020/12/19 12:09:19;;;;;;;13.02;6.20;;;9.50;84.20;;;;;;10034757;28;20065;-59
2020/12/19 12:14:10;;;;;;;10.23;6.00;;;9.60;83.90;;;;;;10033552;28;20057;-60
2020/12/19 12:19:00;;;;;;;11.13;6.53;;;9.60;83.70;;;;;;10037611;28;20104;-64
2020/12/19 12:23:51;;;;;;;13.00;6.30;;;9.70;83.50;;;;;;10033833;28;20439;-65
2020/12/19 12:28:42;;;;;;;8.77;5.25;;;9.60;83.60;;;;;;10042741;28;20555;-68
2020/12/19 12:33:32;;;;;;;9.88;5.40;;;9.50;83.40;;;;;;10043398;28;20477;-64
2020/12/19 12:38:23;;;;;;;10.18;6.18;;;9.50;83.40;;;;;;10045027;28;20167;-58
2020/12/19 12:43:14;;;;;;;13.80;5.75;;;9.50;83.10;;;;;;10044278;28;20034;-60
2020/12/19 12:48:04;;;;;;;13.23;7.07;;;9.50;83.00;;;;;;10040410;28;20049;-60
2020/12/19 12:52:55;;;;;;;12.65;7.13;;;9.60;82.80;;;;;;10041238;28;20025;-59
2020/12/19 12:57:45;;;;;;;10.32;5.60;;;9.60;82.70;;;;;;10040628;28;20037;-58
2020/12/19 13:02:36;;;;;;;9.98;4.85;;;9.80;82.40;;;;;;10041096;28;20049;-60
2020/12/19 13:07:27;;;;;;;9.32;6.38;;;9.90;82.00;;;;;;10039645;28;20445;-60
2020/12/19 13:12:18;;;;;;;11.88;6.10;;;10.00;82.30;;;;;;10038836;28;20030;-59
2020/12/19 13:17:08;;;;;;;9.80;6.05;;;10.00;82.20;;;;;;10043350;28;20037;-60
2020/12/19 13:21:59;;;;;;;9.85;5.28;;;10.20;81.90;;;;;;10035057;28;20410;-61
2020/12/19 13:26:49;;;;;;;8.95;5.70;;;10.10;81.60;;;;;;10039920;28;20056;-59
2020/12/19 13:31:47;;;;;;;10.35;5.50;;;10.10;82.00;;;;;;10044353;28;20028;-59
2020/12/19 13:36:39;;;;;;;9.55;5.40;;;10.00;82.00;;;;;;10041040;28;20036;-59
2020/12/19 13:41:29;;;;;;;10.57;5.68;;;10.00;81.80;;;;;;10037764;28;20029;-59
2020/12/19 13:46:20;;;;;;;13.18;6.03;;;10.00;81.80;;;;;;10040210;28;20645;-60
2020/12/19 13:51:10;;;;;;;9.10;5.43;;;10.10;81.50;;;;;;10041346;28;20551;-60
2020/12/19 13:56:01;;;;;;;9.63;5.20;;;9.90;81.70;;;;;;10035519;28;20483;-60
2020/12/19 14:00:51;;;;;;;7.03;5.30;;;10.00;81.60;;;;;;10038283;28;20025;-60
2020/12/19 14:05:42;;;;;;;10.43;5.65;;;10.00;81.50;;;;;;10040089;28;20029;-60
2020/12/19 14:10:32;;;;;;;8.60;5.63;;;10.00;81.20;;;;;;10043165;28;20029;-60
2020/12/19 14:15:23;;;;;;;9.90;5.45;;;9.90;81.20;;;;;;10040132;28;20030;-60
2020/12/19 14:20:14;;;;;;;8.02;5.30;;;9.90;81.00;;;;;;10035953;28;20040;-60
2020/12/19 14:25:05;;;;;;;7.93;5.43;;;9.90;80.90;;;;;;10036211;28;20037;-59
2020/12/19 14:29:56;;;;;;;9.00;4.43;;;9.90;80.80;;;;;;10043208;28;20752;-60
2020/12/19 14:34:46;;;;;;;15.43;7.38;;;9.80;80.70;;;;;;10036294;28;20076;-59
2020/12/19 14:39:37;;;;;;;13.40;5.78;;;9.70;80.70;;;;;;10031966;28;20030;-60
2020/12/19 14:44:27;;;;;;;9.30;5.13;;;9.80;80.40;;;;;;10034381;28;20404;-60
2020/12/19 14:49:18;;;;;;;9.45;4.93;;;9.70;80.40;;;;;;10036404;28;21598;-60
2020/12/19 14:54:08;;;;;;;11.77;5.97;;;9.70;80.50;;;;;;10035592;28;20029;-64
2020/12/19 14:58:59;;;;;;;10.13;5.65;;;9.70;80.50;;;;;;10035551;28;20407;-63
2020/12/19 15:03:49;;;;;;;8.85;5.53;;;9.70;80.40;;;;;;10031625;28;20038;-63
2020/12/19 15:08:42;;;;;;;9.55;5.18;;;9.70;80.30;;;;;;10032336;28;20022;-64
2020/12/19 15:13:33;;;;;;;8.40;5.47;;;9.70;80.40;;;;;;10040539;28;20088;-63
2020/12/19 15:18:24;;;;;;;8.45;4.15;;;9.70;80.30;;;;;;10033066;28;20083;-64
2020/12/19 15:23:15;;;;;;;6.97;3.67;;;9.60;80.40;;;;;;10037361;28;20041;-64
2020/12/19 15:28:06;;;;;;;11.07;6.50;;;9.60;80.40;;;;;;10033568;28;20017;-64
2020/12/19 15:32:56;;;;;;;9.38;5.20;;;9.70;80.40;;;;;;10029993;28;20045;-64
2020/12/19 15:37:47;;;;;;;14.63;7.80;;;9.70;80.30;;;;;;10034117;28;20025;-64
2020/12/19 15:42:37;;;;;;;8.32;4.97;;;9.70;80.20;;;;;;10032123;28;20026;-64
2020/12/19 15:47:28;;;;;;;8.20;4.13;;;9.60;80.10;;;;;;10031384;28;20043;-64
2020/12/19 15:52:18;;;;;;;9.38;5.32;;;9.60;80.20;;;;;;10034563;28;20036;-63
2020/12/19 15:57:09;;;;;;;9.63;5.93;;;9.60;80.20;;;;;;10030850;28;20557;-64
2020/12/19 16:02:00;;;;;;;8.35;5.55;;;9.60;80.30;;;;;;10042348;28;20465;-65
2020/12/19 16:06:54;;;;;;;9.32;5.13;;;9.50;80.10;;;;;;10043077;28;20022;-64
2020/12/19 16:11:49;;;;;;;8.60;5.28;;;9.40;80.20;;;;;;10041438;28;20433;-65
2020/12/19 16:16:39;;;;;;;9.20;5.05;;;9.30;80.40;;;;;;10041436;28;20092;-64
2020/12/19 16:21:30;;;;;;;10.95;4.90;;;9.20;80.30;;;;;;10042951;28;20025;-63
2020/12/19 16:26:20;;;;;;;12.70;5.10;;;9.20;80.40;;;;;;10043372;28;20025;-63
2020/12/19 16:31:11;;;;;;;11.63;6.57;;;9.20;80.40;;;;;;10046939;28;20037;-64
2020/12/19 16:36:01;;;;;;;9.88;5.43;;;9.20;80.40;;;;;;10047355;28;20033;-64
2020/12/19 16:40:52;;;;;;;9.55;4.85;;;9.20;81.20;;;;;;10041570;28;20029;-63
2020/12/19 16:45:43;;;;;;;9.52;5.30;;;9.20;80.30;;;;;;10038745;28;20025;-64
2020/12/19 16:50:34;;;;;;;12.50;5.22;;;9.20;80.20;;;;;;10038779;28;20051;-63
2020/12/19 16:55:25;;;;;;;11.60;4.75;;;9.10;80.20;;;;;;10040033;28;20492;-64
2020/12/19 17:00:15;;;;;;;6.25;4.45;;;9.10;80.30;;;;;;10042908;28;20037;-64
2020/12/19 17:05:06;;;;;;;7.18;4.78;;;9.10;80.30;;;;;;10040331;28;20021;-64
2020/12/19 17:09:57;;;;;;;6.60;4.55;;;9.10;80.30;;;;;;10037021;28;20033;-64
2020/12/19 17:14:48;;;;;;;9.50;5.72;;;9.10;80.10;;;;;;10035194;28;20565;-64
2020/12/19 17:19:39;;;;;;;7.53;3.97;;;9.10;80.10;;;;;;10042415;28;20022;-64
2020/12/19 17:24:29;;;;;;;5.05;3.35;;;9.10;80.00;;;;;;10049053;28;20041;-63
2020/12/19 17:29:20;;;;;;;7.18;4.07;;;9.10;79.70;;;;;;10044692;28;20527;-65
2020/12/19 17:34:10;;;;;;;7.43;4.60;;;9.00;79.70;;;;;;10038948;28;20032;-64
2020/12/19 17:39:01;;;;;;;8.02;4.30;;;9.00;79.50;;;;;;10040849;28;20021;-64
2020/12/19 17:43:53;;;;;;;9.43;3.78;;;9.00;79.40;;;;;;10036302;28;20037;-64
2020/12/19 17:48:44;;;;;;;6.40;4.38;;;9.00;79.40;;;;;;10036044;28;20057;-64
2020/12/19 17:53:34;;;;;;;7.53;5.03;;;8.90;79.30;;;;;;10038162;28;20510;-63
2020/12/19 17:58:27;;;;;;;10.13;4.78;;;8.90;79.40;;;;;;10031688;28;20033;-63
2020/12/19 18:03:17;;;;;;;8.10;4.22;;;8.90;79.30;;;;;;10041599;28;20056;-63
2020/12/19 18:08:09;;;;;;;8.15;3.92;;;8.90;79.20;;;;;;10034199;28;20037;-65
2020/12/19 18:13:00;;;;;;;9.95;4.22;;;8.90;79.20;;;;;;10036195;28;20041;-64
2020/12/19 18:17:50;;;;;;;7.70;4.38;;;9.10;79.00;;;;;;10037557;28;20111;-64
2020/12/19 18:22:41;;;;;;;8.38;5.10;;;9.20;79.30;;;;;;10040298;28;20037;-64
2020/12/19 18:27:31;;;;;;;7.10;4.30;;;9.40;78.20;;;;;;10035579;28;20022;-63
2020/12/19 18:32:22;;;;;;;6.45;3.95;;;9.40;78.00;;;;;;10034175;28;20029;-64
2020/12/19 18:37:15;;;;;;;7.78;5.00;;;9.50;78.00;;;;;;10037215;28;20140;-64
2020/12/19 18:42:06;;;;;;;9.50;4.20;;;9.60;77.60;;;;;;10035040;28;20466;-64
2020/12/19 18:46:56;;;;;;;6.88;3.78;;;9.60;77.60;;;;;;10037928;28;20053;-64
2020/12/19 18:51:47;;;;;;;7.68;4.30;;;9.60;77.40;;;;;;10033990;28;20104;-63
2020/12/19 18:56:37;;;;;;;5.90;3.67;;;9.70;77.30;;;;;;10036023;28;20040;-64
2020/12/19 19:01:28;;;;;;;7.68;4.18;;;9.70;77.10;;;;;;10036671;28;20021;-64
2020/12/19 19:06:18;;;;;;;7.07;3.65;;;9.70;77.00;;;;;;10037494;28;20083;-64
2020/12/19 19:11:12;;;;;;;8.45;5.22;;;9.70;76.90;;;;;;10035196;28;20033;-64
2020/12/19 19:16:03;;;;;;;8.70;5.50;;;9.70;76.50;;;;;;10037926;28;20040;-63
2020/12/19 19:20:54;;;;;;;8.32;5.72;;;9.70;76.40;;;;;;10035419;28;20369;-65
2020/12/19 19:25:44;;;;;;;15.95;9.13;;;9.70;76.20;;;;;;10036324;28;20500;-64
2020/12/19 19:30:35;;;;;;;25.60;11.80;;;9.80;76.10;;;;;;10038650;28;20026;-64
2020/12/19 19:35:25;;;;;;;11.82;7.90;;;9.80;76.00;;;;;;10034959;28;20753;-60
2020/12/19 19:40:16;;;;;;;9.27;5.55;;;9.70;75.90;;;;;;10038985;28;20030;-59
2020/12/19 19:45:07;;;;;;;10.45;5.93;;;9.70;75.90;;;;;;10037385;28;20037;-60
2020/12/19 19:49:57;;;;;;;9.80;6.28;;;9.70;75.60;;;;;;10036701;28;20045;-60
2020/12/19 19:54:48;;;;;;;10.20;4.80;;;9.70;75.70;;;;;;10033327;28;20419;-60
2020/12/19 19:59:38;;;;;;;8.27;5.32;;;9.60;75.60;;;;;;10034496;28;20577;-60
2020/12/19 20:04:29;;;;;;;17.42;8.32;;;9.60;75.50;;;;;;10037930;28;20526;-59
2020/12/19 20:09:19;;;;;;;8.23;4.70;;;9.60;75.50;;;;;;10032779;28;20091;-59
2020/12/19 20:14:10;;;;;;;7.10;4.22;;;9.50;75.50;;;;;;10039960;28;20053;-60
2020/12/19 20:19:01;;;;;;;11.70;5.40;;;9.50;75.50;;;;;;10032734;28;20115;-60
2020/12/19 20:23:51;;;;;;;8.10;5.65;;;9.50;75.40;;;;;;10034860;28;20118;-61
2020/12/19 20:28:42;;;;;;;17.70;9.25;;;9.50;75.40;;;;;;10031692;28;20563;-60
2020/12/19 20:33:33;;;;;;;9.98;5.40;;;9.40;75.50;;;;;;10033184;28;20033;-61
2020/12/19 20:38:23;;;;;;;8.35;4.57;;;9.40;75.50;;;;;;10033078;28;20033;-60
2020/12/19 20:43:14;;;;;;;10.50;5.28;;;9.40;75.60;;;;;;10033703;28;20042;-59
2020/12/19 20:48:04;;;;;;;8.95;5.35;;;9.30;75.60;;;;;;10032275;28;20050;-59
2020/12/19 20:52:55;;;;;;;8.73;5.15;;;9.30;75.80;;;;;;10040794;28;20033;-60
2020/12/19 20:57:49;;;;;;;7.70;4.95;;;9.30;75.90;;;;;;10040135;28;20026;-59
2020/12/19 21:02:40;;;;;;;9.07;5.10;;;9.30;76.00;;;;;;10033445;28;20356;-59
2020/12/19 21:07:31;;;;;;;8.70;5.30;;;9.30;75.70;;;;;;10034875;28;20037;-60
2020/12/19 21:12:21;;;;;;;11.10;5.85;;;9.20;75.90;;;;;;10039005;28;20030;-60
2020/12/19 21:17:12;;;;;;;14.18;8.32;;;9.20;76.10;;;;;;10042139;28;20026;-58
2020/12/19 21:22:03;;;;;;;9.80;5.38;;;9.20;76.40;;;;;;10041669;28;20033;-60
2020/12/19 21:27:01;;;;;;;11.40;5.93;;;9.20;76.40;;;;;;10047456;28;20341;-63
2020/12/19 21:31:52;;;;;;;9.90;4.45;;;9.20;76.50;;;;;;10042278;28;20033;-60
2020/12/19 21:36:42;;;;;;;8.73;5.05;;;9.10;76.60;;;;;;10040876;28;20033;-60
2020/12/19 21:41:33;;;;;;;8.90;5.10;;;9.20;76.60;;;;;;10038275;28;20065;-60
2020/12/19 21:46:24;;;;;;;6.97;4.75;;;9.20;76.50;;;;;;10033114;28;20330;-59
2020/12/19 21:51:15;;;;;;;6.43;4.38;;;9.30;76.50;;;;;;10039283;28;20037;-59
2020/12/19 21:56:05;;;;;;;7.28;4.93;;;9.30;76.50;;;;;;10035258;28;20392;-59
2020/12/19 22:00:56;;;;;;;7.00;4.45;;;9.30;76.50;;;;;;10031403;28;20108;-59
2020/12/19 22:05:46;;;;;;;13.23;6.30;;;9.40;76.60;;;;;;10038733;28;20526;-59
2020/12/19 22:10:37;;;;;;;9.50;5.13;;;9.40;76.60;;;;;;10034448;28;20033;-59
2020/12/19 22:15:28;;;;;;;14.27;8.98;;;9.40;76.70;;;;;;10039920;28;20038;-63
2020/12/19 22:20:18;;;;;;;8.38;5.10;;;9.40;76.80;;;;;;10044911;28;20069;-65
2020/12/19 22:25:09;;;;;;;9.07;4.13;;;9.40;76.60;;;;;;10041255;28;20065;-59
2020/12/19 22:30:00;;;;;;;8.27;4.28;;;9.40;77.10;;;;;;10041972;28;20033;-64
2020/12/19 22:34:51;;;;;;;9.10;4.20;;;9.40;76.40;;;;;;10041030;28;20029;-63
2020/12/19 22:39:42;;;;;;;5.75;3.85;;;9.40;76.50;;;;;;10035385;28;20092;-65
2020/12/19 22:44:32;;;;;;;8.93;4.82;;;9.40;76.50;;;;;;10043104;28;20809;-64
2020/12/19 22:49:23;;;;;;;8.70;4.25;;;9.50;76.40;;;;;;10036919;28;20455;-58
2020/12/19 22:54:14;;;;;;;6.97;4.40;;;9.50;76.20;;;;;;10039382;28;20100;-59
2020/12/19 22:59:04;;;;;;;4.75;4.00;;;9.50;76.10;;;;;;10035615;28;20087;-60
2020/12/19 23:03:55;;;;;;;8.90;4.72;;;9.50;76.20;;;;;;10036345;28;20117;-59
2020/12/19 23:08:45;;;;;;;6.78;4.35;;;9.60;76.20;;;;;;10031295;28;20048;-59
2020/12/19 23:13:37;;;;;;;7.50;4.57;;;9.50;76.00;;;;;;10033814;28;20472;-59
2020/12/19 23:18:28;;;;;;;7.47;4.55;;;9.60;75.90;;;;;;10030269;28;20029;-59
2020/12/19 23:23:19;;;;;;;8.57;5.10;;;9.60;75.60;;;;;;10034240;28;20041;-58
2020/12/19 23:28:09;;;;;;;9.82;4.82;;;9.60;75.50;;;;;;10038906;28;20627;-59
2020/12/19 23:33:00;;;;;;;9.10;4.47;;;9.60;75.40;;;;;;10036980;28;20448;-60
2020/12/19 23:37:50;;;;;;;7.47;4.25;;;9.60;75.30;;;;;;10034357;28;20587;-58
2020/12/19 23:42:41;;;;;;;8.40;4.90;;;9.60;75.30;;;;;;10033701;28;20036;-59
2020/12/19 23:47:32;;;;;;;8.77;4.88;;;9.60;75.30;;;;;;10034273;28;20053;-58
2020/12/19 23:52:22;;;;;;;6.95;4.72;;;9.70;75.10;;;;;;10035573;28;20030;-61
2020/12/19 23:57:13;;;;;;;8.55;4.97;;;9.60;75.00;;;;;;10037433;28;20197;-63
